createdAt,value
2023-02-26T00:01:43.320Z,57.62
2023-02-26T00:04:11.757Z,57.52
2023-02-26T00:06:52.521Z,57.03
2023-02-26T00:09:21.494Z,57.54
2023-02-26T00:11:51.337Z,56.74
2023-02-26T00:14:19.738Z,57.21
2023-02-26T00:16:51.730Z,56.59
2023-02-26T00:19:20.468Z,57.30
2023-02-26T00:21:48.962Z,56.08
2023-02-26T00:24:16.968Z,56.03
2023-02-26T00:26:44.949Z,56.87
2023-02-26T00:29:15.010Z,56.13
2023-02-26T00:31:43.670Z,56.29
2023-02-26T00:34:14.044Z,56.21
2023-02-26T00:36:51.618Z,56.46
2023-02-26T00:39:35.204Z,56.09
2023-02-26T00:42:03.721Z,55.08
2023-02-26T00:44:34.141Z,55.96
2023-02-26T00:47:10.169Z,55.77
2023-02-26T00:49:50.966Z,54.67
2023-02-26T00:52:28.973Z,54.30
2023-02-26T00:54:57.049Z,55.33
2023-02-26T00:57:25.031Z,55.13
2023-02-26T00:59:54.411Z,54.96
2023-02-26T01:02:22.749Z,55.64
2023-02-26T01:04:51.540Z,55.18
2023-02-26T01:07:24.246Z,54.65
2023-02-26T01:09:52.835Z,54.40
2023-02-26T01:12:21.374Z,55.73
2023-02-26T01:14:50.564Z,55.63
2023-02-26T01:17:24.794Z,54.85
2023-02-26T01:19:55.500Z,55.11
2023-02-26T01:22:28.584Z,56.14
2023-02-26T01:25:02.961Z,54.83
2023-02-26T01:27:31.433Z,55.87
2023-02-26T01:30:00.251Z,54.66
2023-02-26T01:32:43.443Z,54.54
2023-02-26T01:35:20.757Z,54.75
2023-02-26T01:37:55.249Z,55.27
2023-02-26T01:40:50.742Z,54.59
2023-02-26T01:43:24.626Z,55.28
2023-02-26T01:45:59.955Z,54.79
2023-02-26T01:48:38.512Z,54.75
2023-02-26T01:51:07.140Z,55.87
2023-02-26T01:53:35.227Z,55.05
2023-02-26T01:56:07.574Z,55.29
2023-02-26T01:58:37.827Z,55.31
2023-02-26T02:01:07.449Z,55.38
2023-02-26T02:03:40.075Z,54.91
2023-02-26T02:06:12.080Z,55.18
2023-02-26T02:08:40.384Z,54.84
2023-02-26T02:11:12.512Z,55.06
2023-02-26T02:13:57.002Z,54.67
2023-02-26T02:16:36.507Z,55.39
2023-02-26T02:19:23.599Z,55.49
2023-02-26T02:22:15.041Z,55.82
2023-02-26T02:24:59.140Z,55.23
2023-02-26T02:27:36.876Z,56.08
2023-02-26T02:30:19.465Z,55.72
2023-02-26T02:32:55.373Z,55.80
2023-02-26T02:35:30.359Z,56.47
2023-02-26T02:38:04.047Z,56.78
2023-02-26T02:40:35.672Z,56.61
2023-02-26T02:43:10.533Z,56.76
2023-02-26T02:45:44.524Z,56.91
2023-02-26T02:48:21.564Z,56.76
2023-02-26T02:50:52.916Z,57.51
2023-02-26T02:53:26.713Z,57.48
2023-02-26T02:55:59.768Z,57.84
2023-02-26T02:58:31.607Z,58.07
2023-02-26T03:01:03.966Z,58.60
2023-02-26T03:03:38.324Z,58.86
2023-02-26T03:06:06.734Z,58.36
2023-02-26T03:08:38.474Z,58.64
2023-02-26T03:11:06.831Z,59.55
2023-02-26T03:13:35.890Z,59.63
2023-02-26T03:16:27.305Z,59.50
2023-02-26T03:19:05.549Z,59.05
2023-02-26T03:21:48.520Z,59.67
2023-02-26T03:24:31.018Z,59.81
2023-02-26T03:27:03.621Z,59.55
2023-02-26T03:29:41.656Z,60.40
2023-02-26T03:32:16.233Z,59.92
2023-02-26T03:34:50.783Z,59.76
2023-02-26T03:37:26.308Z,59.97
2023-02-26T03:39:57.379Z,60.67
2023-02-26T03:42:29.497Z,60.60
2023-02-26T03:45:05.956Z,60.78
2023-02-26T03:47:37.489Z,60.07
2023-02-26T03:50:12.138Z,60.20
2023-02-26T03:52:53.387Z,61.66
2023-02-26T03:55:36.553Z,61.42
2023-02-26T03:58:23.569Z,61.51
2023-02-26T04:01:18.612Z,61.67
2023-02-26T04:03:50.187Z,62.20
2023-02-26T04:06:20.491Z,62.21
2023-02-26T04:08:48.921Z,63.97
2023-02-26T04:11:19.771Z,64.45
2023-02-26T04:13:49.441Z,63.86
2023-02-26T04:16:18.785Z,63.29
2023-02-26T04:18:46.952Z,63.71
2023-02-26T04:21:17.138Z,64.18
2023-02-26T04:23:46.593Z,63.55
2023-02-26T04:26:14.875Z,63.46
2023-02-26T04:28:43.753Z,64.17
2023-02-26T04:31:11.925Z,64.37
2023-02-26T04:33:41.171Z,63.42
2023-02-26T04:36:10.625Z,63.67
2023-02-26T04:38:39.105Z,62.83
2023-02-26T04:41:08.993Z,63.01
2023-02-26T04:43:37.774Z,63.00
2023-02-26T04:46:20.633Z,63.54
2023-02-26T04:48:49.104Z,62.69
2023-02-26T04:51:17.131Z,62.37
2023-02-26T04:53:46.980Z,62.73
2023-02-26T04:56:16.978Z,62.93
2023-02-26T04:58:46.134Z,63.69
2023-02-26T05:01:19.255Z,63.45
2023-02-26T05:03:47.275Z,62.72
2023-02-26T05:06:16.519Z,62.01
2023-02-26T05:08:44.593Z,61.71
2023-02-26T05:11:13.268Z,61.40
2023-02-26T05:13:42.688Z,61.38
2023-02-26T05:16:10.965Z,61.58
2023-02-26T05:18:40.125Z,61.63
2023-02-26T05:21:08.173Z,61.43
2023-02-26T05:23:36.513Z,61.34
2023-02-26T05:26:04.536Z,61.79
2023-02-26T05:28:33.965Z,61.13
2023-02-26T05:31:04.038Z,61.91
2023-02-26T05:33:32.301Z,61.15
2023-02-26T05:36:00.284Z,61.42
2023-02-26T05:38:28.265Z,61.41
2023-02-26T05:40:58.915Z,60.94
2023-02-26T05:43:27.356Z,60.80
2023-02-26T05:45:56.234Z,60.79
2023-02-26T05:48:25.700Z,60.05
2023-02-26T05:50:53.704Z,60.89
2023-02-26T05:53:21.818Z,60.43
2023-02-26T05:55:50.484Z,60.75
2023-02-26T05:58:18.471Z,60.17
2023-02-26T06:00:46.916Z,60.08
2023-02-26T06:03:14.973Z,59.63
2023-02-26T06:05:44.334Z,60.48
2023-02-26T06:08:15.600Z,60.20
2023-02-26T06:10:44.306Z,59.95
2023-02-26T06:13:12.591Z,59.68
2023-02-26T06:15:40.547Z,59.02
2023-02-26T06:18:08.861Z,58.83
2023-02-26T06:20:37.324Z,58.88
2023-02-26T06:23:06.691Z,58.63
2023-02-26T06:25:34.692Z,58.48
2023-02-26T06:28:02.688Z,58.61
2023-02-26T06:30:30.689Z,58.81
2023-02-26T06:32:58.930Z,58.75
2023-02-26T06:35:28.482Z,58.88
2023-02-26T06:37:56.520Z,58.57
2023-02-26T06:40:25.929Z,58.05
2023-02-26T06:42:54.031Z,57.71
2023-02-26T06:45:21.998Z,57.81
2023-02-26T06:47:49.988Z,57.95
2023-02-26T06:50:18.497Z,57.67
2023-02-26T06:52:46.532Z,57.87
2023-02-26T06:55:15.255Z,57.80
2023-02-26T06:57:44.734Z,57.33
2023-02-26T07:00:13.618Z,57.50
2023-02-26T07:02:41.696Z,57.41
2023-02-26T07:05:10.678Z,56.94
2023-02-26T07:07:38.664Z,56.60
2023-02-26T07:10:07.249Z,56.29
2023-02-26T07:12:35.256Z,56.16
2023-02-26T07:15:05.313Z,55.90
2023-02-26T07:17:33.870Z,55.90
2023-02-26T07:20:06.332Z,55.90
2023-02-26T07:22:34.416Z,55.76
2023-02-26T07:25:02.383Z,55.88
2023-02-26T07:27:31.055Z,55.90
2023-02-26T07:29:59.033Z,55.76
2023-02-26T07:32:28.593Z,55.67
2023-02-26T07:34:56.654Z,54.95
2023-02-26T07:37:24.814Z,54.74
2023-02-26T07:39:52.912Z,55.17
2023-02-26T07:42:20.873Z,54.79
2023-02-26T07:44:48.996Z,54.40
2023-02-26T07:47:17.989Z,55.67
2023-02-26T07:49:47.414Z,55.93
2023-02-26T07:52:15.420Z,55.01
2023-02-26T07:54:43.770Z,54.80
2023-02-26T07:57:11.742Z,54.47
2023-02-26T07:59:39.798Z,54.64
2023-02-26T08:02:07.862Z,54.61
2023-02-26T08:04:35.904Z,54.30
2023-02-26T08:07:05.563Z,54.25
2023-02-26T08:09:33.585Z,53.91
2023-02-26T08:12:01.534Z,53.53
2023-02-26T08:14:29.480Z,53.32
2023-02-26T08:16:57.450Z,53.15
2023-02-26T08:19:25.446Z,53.35
2023-02-26T08:21:55.361Z,52.91
2023-02-26T08:24:24.786Z,52.59
2023-02-26T08:26:52.901Z,52.51
2023-02-26T08:29:21.425Z,52.95
2023-02-26T08:31:49.706Z,52.70
2023-02-26T08:34:17.781Z,52.66
2023-02-26T08:36:45.829Z,52.43
2023-02-26T08:39:13.847Z,52.76
2023-02-26T08:41:43.266Z,52.46
2023-02-26T08:44:11.497Z,52.07
2023-02-26T08:46:39.549Z,52.60
2023-02-26T08:49:07.553Z,53.13
2023-02-26T08:51:35.569Z,53.33
2023-02-26T08:54:03.614Z,53.13
2023-02-26T08:56:31.971Z,53.19
2023-02-26T08:59:01.357Z,52.96
2023-02-26T09:01:29.600Z,52.78
2023-02-26T09:03:57.783Z,52.74
2023-02-26T09:06:26.115Z,52.27
2023-02-26T09:08:54.381Z,52.32
2023-02-26T09:11:22.429Z,53.31
2023-02-26T09:13:50.494Z,52.15
2023-02-26T09:16:19.888Z,51.99
2023-02-26T09:18:47.990Z,51.56
2023-02-26T09:21:15.988Z,51.63
2023-02-26T09:23:43.961Z,51.46
2023-02-26T09:26:11.951Z,51.75
2023-02-26T09:28:40.090Z,51.75
2023-02-26T09:31:08.614Z,51.79
2023-02-26T09:33:38.141Z,51.79
2023-02-26T09:36:06.667Z,51.45
2023-02-26T09:38:36.450Z,51.51
2023-02-26T09:41:07.387Z,51.58
2023-02-26T09:43:50.698Z,50.21
2023-02-26T09:46:30.068Z,51.35
2023-02-26T09:49:06.579Z,51.43
2023-02-26T09:51:36.567Z,51.94
2023-02-26T09:54:16.576Z,51.92
2023-02-26T09:56:45.992Z,52.58
2023-02-26T09:59:14.104Z,52.10
2023-02-26T10:01:48.771Z,52.01
2023-02-26T10:04:28.897Z,51.97
2023-02-26T10:07:08.572Z,52.39
2023-02-26T10:09:53.007Z,52.61
2023-02-26T10:12:22.850Z,52.49
2023-02-26T10:14:56.272Z,52.22
2023-02-26T10:17:34.822Z,51.60
2023-02-26T10:20:13.110Z,51.90
2023-02-26T10:22:47.201Z,52.04
2023-02-26T10:25:20.878Z,51.83
2023-02-26T10:27:56.896Z,51.40
2023-02-26T10:30:34.686Z,50.99
2023-02-26T10:33:08.692Z,51.48
2023-02-26T10:35:44.523Z,51.12
2023-02-26T10:38:15.027Z,51.21
2023-02-26T10:40:50.475Z,51.54
2023-02-26T10:43:22.607Z,50.56
2023-02-26T10:46:18.930Z,50.69
2023-02-26T10:48:59.693Z,50.78
2023-02-26T10:51:35.149Z,50.94
2023-02-26T10:54:06.521Z,51.30
2023-02-26T10:56:36.162Z,51.16
2023-02-26T10:59:04.156Z,51.30
2023-02-26T11:01:32.526Z,51.67
2023-02-26T11:04:03.088Z,51.19
2023-02-26T11:06:35.647Z,51.13
2023-02-26T11:09:04.177Z,51.79
2023-02-26T11:11:42.250Z,51.48
2023-02-26T11:14:11.512Z,51.39
2023-02-26T11:16:46.956Z,50.61
2023-02-26T11:19:17.596Z,51.56
2023-02-26T11:21:48.813Z,50.60
2023-02-26T11:24:32.063Z,50.64
2023-02-26T11:27:04.236Z,51.09
2023-02-26T11:29:39.246Z,50.49
2023-02-26T11:32:08.194Z,50.01
2023-02-26T11:34:36.837Z,49.64
2023-02-26T11:37:06.886Z,49.99
2023-02-26T11:39:39.041Z,50.23
2023-02-26T11:42:07.212Z,49.75
2023-02-26T11:44:38.626Z,49.58
2023-02-26T11:47:11.866Z,49.60
2023-02-26T11:49:44.472Z,48.94
2023-02-26T11:52:24.068Z,48.41
2023-02-26T11:54:57.458Z,48.23
2023-02-26T11:57:27.278Z,48.15
2023-02-26T11:59:58.593Z,49.25
2023-02-26T12:02:29.937Z,49.24
2023-02-26T12:05:01.929Z,48.69
2023-02-26T12:07:32.018Z,48.73
2023-02-26T12:10:00.199Z,48.85
2023-02-26T12:12:41.719Z,48.34
2023-02-26T12:15:28.615Z,47.23
2023-02-26T12:18:21.370Z,48.94
2023-02-26T12:20:59.725Z,48.26
2023-02-26T12:24:03.141Z,48.22
2023-02-26T12:26:34.956Z,47.50
2023-02-26T12:29:20.392Z,47.50
2023-02-26T12:32:39.592Z,46.61
2023-02-26T12:35:34.988Z,46.30
2023-02-26T12:38:15.424Z,47.23
2023-02-26T12:41:06.088Z,46.52
2023-02-26T12:43:41.847Z,46.67
2023-02-26T12:46:20.361Z,46.70
2023-02-26T12:49:15.174Z,46.38
2023-02-26T12:51:57.895Z,47.25
2023-02-26T12:54:42.043Z,46.29
2023-02-26T12:57:43.651Z,47.08
2023-02-26T13:00:41.298Z,44.79
2023-02-26T13:03:30.328Z,45.52
2023-02-26T13:06:29.687Z,45.35
2023-02-26T13:09:06.080Z,46.15
2023-02-26T13:11:47.255Z,45.50
2023-02-26T13:14:41.991Z,45.60
2023-02-26T13:17:18.972Z,46.17
2023-02-26T13:19:52.123Z,46.02
2023-02-26T13:22:23.792Z,46.10
2023-02-26T13:24:57.465Z,45.86
2023-02-26T13:27:30.207Z,45.83
2023-02-26T13:30:11.337Z,45.65
2023-02-26T13:32:41.357Z,45.85
2023-02-26T13:35:20.834Z,44.72
2023-02-26T13:37:52.475Z,46.03
2023-02-26T13:40:38.538Z,46.12
2023-02-26T13:43:19.326Z,45.77
2023-02-26T13:46:00.920Z,45.63
2023-02-26T13:48:40.762Z,46.24
2023-02-26T13:51:15.068Z,46.04
2023-02-26T13:53:59.601Z,45.63
2023-02-26T13:56:54.222Z,45.35
2023-02-26T13:59:38.664Z,45.93
2023-02-26T14:02:39.949Z,45.41
2023-02-26T14:05:31.914Z,45.26
2023-02-26T14:08:43.471Z,45.71
2023-02-26T14:11:35.295Z,44.75
2023-02-26T14:14:17.427Z,45.50
2023-02-26T14:16:54.499Z,45.88
2023-02-26T14:19:30.468Z,46.63
2023-02-26T14:22:14.939Z,46.62
2023-02-26T14:24:51.792Z,46.29
2023-02-26T14:27:32.550Z,46.70
2023-02-26T14:30:20.161Z,46.13
2023-02-26T14:32:51.207Z,46.94
2023-02-26T14:35:23.100Z,46.26
2023-02-26T14:38:09.795Z,45.77
2023-02-26T14:40:41.012Z,46.08
2023-02-26T14:43:17.707Z,45.92
2023-02-26T14:45:46.157Z,46.28
2023-02-26T14:48:16.441Z,46.09
2023-02-26T14:50:53.263Z,45.73
2023-02-26T14:56:24.514Z,46.39
2023-02-26T14:59:23.779Z,45.88
2023-02-26T15:02:03.069Z,46.56
2023-02-26T15:04:47.753Z,46.48
2023-02-26T15:07:40.732Z,46.14
2023-02-26T15:10:30.338Z,46.22
2023-02-26T15:13:25.622Z,46.78
2023-02-26T15:15:57.361Z,46.54
2023-02-26T15:18:44.031Z,46.68
2023-02-26T15:21:19.087Z,46.65
2023-02-26T15:23:50.092Z,47.20
2023-02-26T15:26:24.129Z,47.20
2023-02-26T15:28:55.485Z,47.56
2023-02-26T15:31:32.121Z,47.09
2023-02-26T15:34:00.352Z,47.35
2023-02-26T15:36:31.030Z,46.63
2023-02-26T15:39:01.810Z,46.98
2023-02-26T15:41:31.954Z,46.74
2023-02-26T15:44:05.303Z,47.02
2023-02-26T15:46:37.098Z,47.06
2023-02-26T15:49:09.698Z,47.00
2023-02-26T15:51:37.990Z,47.34
2023-02-26T15:54:06.437Z,47.62
2023-02-26T15:56:37.792Z,47.46
2023-02-26T15:59:13.998Z,47.30
2023-02-26T16:01:42.998Z,47.56
2023-02-26T16:04:15.204Z,47.09
2023-02-26T16:06:48.204Z,47.37
2023-02-26T16:09:18.856Z,47.55
2023-02-26T16:11:50.891Z,47.61
2023-02-26T16:14:25.366Z,47.51
2023-02-26T16:16:56.360Z,47.24
2023-02-26T16:19:36.533Z,46.91
2023-02-26T16:22:13.282Z,47.43
2023-02-26T16:24:41.691Z,47.19
2023-02-26T16:27:14.593Z,47.54
2023-02-26T16:29:51.848Z,46.88
2023-02-26T16:32:21.089Z,48.05
2023-02-26T16:34:52.958Z,47.98
2023-02-26T16:37:27.446Z,48.28
2023-02-26T16:40:00.119Z,48.36
2023-02-26T16:42:44.804Z,48.65
2023-02-26T16:45:21.431Z,47.97
2023-02-26T16:47:53.050Z,48.18
2023-02-26T16:50:25.562Z,47.86
2023-02-26T16:53:01.112Z,47.99
2023-02-26T16:55:31.097Z,48.09
2023-02-26T16:58:02.725Z,48.06
2023-02-26T17:00:32.183Z,47.79
2023-02-26T17:03:07.638Z,47.85
2023-02-26T17:05:38.182Z,47.99
2023-02-26T17:08:10.666Z,48.67
2023-02-26T17:10:41.675Z,47.69
2023-02-26T17:13:16.863Z,47.34
2023-02-26T17:15:49.155Z,47.89
2023-02-26T17:18:17.752Z,48.57
2023-02-26T17:20:46.340Z,47.99
2023-02-26T17:23:16.499Z,47.79
2023-02-26T17:25:47.407Z,48.10
2023-02-26T17:28:21.916Z,47.99
2023-02-26T17:30:51.409Z,48.51
2023-02-26T17:33:20.100Z,48.52
2023-02-26T17:35:48.212Z,48.17
2023-02-26T17:38:17.678Z,48.46
2023-02-26T17:40:47.700Z,48.94
2023-02-26T17:43:15.793Z,49.10
2023-02-26T17:45:43.905Z,48.70
2023-02-26T17:48:17.279Z,48.83
2023-02-26T17:50:48.449Z,49.22
2023-02-26T17:53:17.807Z,49.23
2023-02-26T17:55:46.941Z,49.21
2023-02-26T17:58:17.902Z,48.55
2023-02-26T18:00:49.813Z,48.69
2023-02-26T18:03:20.027Z,48.57
2023-02-26T18:05:48.632Z,48.40
2023-02-26T18:08:20.557Z,48.33
2023-02-26T18:10:48.713Z,48.57
2023-02-26T18:13:16.764Z,48.32
2023-02-26T18:15:44.865Z,48.29
2023-02-26T18:18:13.883Z,48.65
2023-02-26T18:20:44.054Z,48.75
2023-02-26T18:23:13.817Z,48.84
2023-02-26T18:25:42.845Z,48.66
2023-02-26T18:28:14.533Z,48.78
2023-02-26T18:30:44.332Z,49.08
2023-02-26T18:33:12.736Z,49.01
2023-02-26T18:35:45.971Z,49.97
2023-02-26T18:38:14.929Z,50.02
2023-02-26T18:40:43.443Z,49.08
2023-02-26T18:43:12.723Z,49.74
2023-02-26T18:45:41.008Z,49.39
2023-02-26T18:48:11.475Z,49.55
2023-02-26T18:50:39.957Z,49.08
2023-02-26T18:53:09.824Z,49.28
2023-02-26T18:55:37.900Z,49.87
2023-02-26T18:58:06.335Z,49.44
2023-02-26T19:00:35.390Z,49.02
2023-02-26T19:03:03.348Z,49.72
2023-02-26T19:05:31.397Z,49.15
2023-02-26T19:07:59.850Z,48.98
2023-02-26T19:10:31.515Z,48.82
2023-02-26T19:12:59.673Z,48.33
2023-02-26T19:15:27.659Z,48.54
2023-02-26T19:17:55.745Z,48.81
2023-02-26T19:20:23.754Z,48.94
2023-02-26T19:22:51.769Z,49.25
2023-02-26T19:25:23.959Z,48.89
2023-02-26T19:27:54.453Z,48.87
2023-02-26T19:30:23.674Z,48.78
2023-02-26T19:32:52.150Z,48.58
2023-02-26T19:35:20.368Z,49.09
2023-02-26T19:37:48.861Z,48.89
2023-02-26T19:40:17.306Z,48.70
2023-02-26T19:42:45.448Z,48.76
2023-02-26T19:45:15.532Z,48.31
2023-02-26T19:47:43.547Z,48.87
2023-02-26T19:50:12.861Z,48.37
2023-02-26T19:52:41.255Z,48.69
2023-02-26T19:55:10.790Z,48.76
2023-02-26T19:57:38.889Z,49.25
2023-02-26T20:00:08.219Z,48.61
2023-02-26T20:02:43.493Z,49.01
2023-02-26T20:05:16.948Z,48.35
2023-02-26T20:07:45.803Z,49.26
2023-02-26T20:10:15.703Z,49.13
2023-02-26T20:12:44.102Z,48.63
2023-02-26T20:15:12.876Z,48.91
2023-02-26T20:17:40.851Z,48.63
2023-02-26T20:20:11.792Z,48.65
2023-02-26T20:22:39.847Z,49.00
2023-02-26T20:25:09.376Z,48.77
2023-02-26T20:27:37.464Z,48.64
2023-02-26T20:30:07.193Z,48.95
2023-02-26T20:32:35.400Z,49.56
2023-02-26T20:35:03.519Z,49.29
2023-02-26T20:37:32.879Z,49.10
2023-02-26T20:40:00.900Z,48.75
2023-02-26T20:42:28.932Z,48.91
2023-02-26T20:44:56.990Z,49.10
2023-02-26T20:47:24.954Z,49.20
2023-02-26T20:49:52.990Z,49.44
2023-02-26T20:52:21.108Z,49.48
2023-02-26T20:54:50.714Z,49.23
2023-02-26T20:57:18.701Z,49.19
2023-02-26T20:59:47.355Z,49.00
2023-02-26T21:02:20.759Z,49.00
2023-02-26T21:04:49.222Z,48.87
2023-02-26T21:07:22.162Z,48.71
2023-02-26T21:09:52.379Z,49.27
2023-02-26T21:12:20.639Z,49.30
2023-02-26T21:14:55.712Z,48.85
2023-02-26T21:17:24.417Z,49.69
2023-02-26T21:19:53.089Z,48.85
2023-02-26T21:22:22.653Z,49.57
2023-02-26T21:24:52.032Z,49.63
2023-02-26T21:27:20.028Z,49.67
2023-02-26T21:29:47.997Z,50.05
2023-02-26T21:32:16.142Z,49.94
2023-02-26T21:34:44.236Z,50.04
2023-02-26T21:37:13.299Z,50.11
2023-02-26T21:39:41.308Z,50.40
2023-02-26T21:42:13.823Z,50.20
2023-02-26T21:44:42.001Z,50.90
2023-02-26T21:47:10.287Z,50.51
2023-02-26T21:49:38.412Z,50.37
2023-02-26T21:52:08.071Z,51.37
2023-02-26T21:54:36.077Z,51.60
2023-02-26T21:57:04.143Z,51.06
2023-02-26T21:59:33.536Z,51.52
2023-02-26T22:02:01.622Z,51.10
2023-02-26T22:04:29.702Z,51.90
2023-02-26T22:06:58.099Z,51.13
2023-02-26T22:09:26.043Z,51.57
2023-02-26T22:11:54.002Z,51.30
2023-02-26T22:14:22.072Z,51.41
2023-02-26T22:16:51.505Z,51.43
2023-02-26T22:19:19.609Z,51.18
2023-02-26T22:21:47.552Z,51.61
2023-02-26T22:24:15.619Z,51.25
2023-02-26T22:26:44.600Z,51.17
2023-02-26T22:29:12.638Z,51.30
2023-02-26T22:31:40.608Z,51.78
2023-02-26T22:34:09.996Z,51.41
2023-02-26T22:36:37.989Z,52.23
2023-02-26T22:39:06.697Z,52.41
2023-02-26T22:41:35.398Z,52.76
2023-02-26T22:44:03.630Z,52.98
2023-02-26T22:46:32.342Z,53.44
2023-02-26T22:49:00.392Z,54.10
2023-02-26T22:51:30.013Z,54.87
2023-02-26T22:53:58.135Z,55.02
2023-02-26T22:56:26.217Z,55.68
2023-02-26T22:58:54.709Z,55.56
2023-02-26T23:01:22.705Z,56.18
2023-02-26T23:03:50.701Z,56.27
2023-02-26T23:06:18.756Z,56.48
2023-02-26T23:08:48.327Z,56.37
2023-02-26T23:11:16.403Z,56.31
2023-02-26T23:13:44.348Z,56.77
2023-02-26T23:16:12.783Z,56.93
2023-02-26T23:18:41.927Z,57.69
2023-02-26T23:21:09.880Z,57.64
2023-02-26T23:23:37.876Z,57.35
2023-02-26T23:26:08.187Z,57.27
2023-02-26T23:28:36.488Z,56.70
2023-02-26T23:31:05.497Z,57.31
2023-02-26T23:33:33.618Z,57.65
2023-02-26T23:36:01.652Z,57.16
2023-02-26T23:38:29.605Z,56.70
2023-02-26T23:40:57.758Z,56.70
2023-02-26T23:43:27.132Z,57.83
2023-02-26T23:45:55.170Z,58.20
2023-02-26T23:48:24.721Z,57.69
2023-02-26T23:50:52.775Z,56.83
2023-02-26T23:53:20.888Z,57.39
2023-02-26T23:55:51.149Z,57.45
2023-02-26T23:58:19.418Z,57.08
